sensor_id;sensor_type;location;lat;lon;timestamp;temperature;humidity
49855;DHT22;35752;52.164;21.244;2023-03-05T00:01:09;-3.30;98.20
49855;DHT22;35752;52.164;21.244;2023-03-05T00:03:35;-3.20;98.20
49855;DHT22;35752;52.164;21.244;2023-03-05T00:06:01;-3.30;98.50
49855;DHT22;35752;52.164;21.244;2023-03-05T00:08:27;-3.30;97.90
49855;DHT22;35752;52.164;21.244;2023-03-05T00:11:11;-3.30;97.80
49855;DHT22;35752;52.164;21.244;2023-03-05T00:13:36;-3.20;98.60
49855;DHT22;35752;52.164;21.244;2023-03-05T00:16:02;-3.20;99.30
49855;DHT22;35752;52.164;21.244;2023-03-05T00:18:28;-3.30;99.20
49855;DHT22;35752;52.164;21.244;2023-03-05T00:20:54;-3.40;99.00
49855;DHT22;35752;52.164;21.244;2023-03-05T00:23:19;-3.30;99.90
49855;DHT22;35752;52.164;21.244;2023-03-05T00:25:45;-3.30;99.90
49855;DHT22;35752;52.164;21.244;2023-03-05T00:28:11;-3.30;99.90
49855;DHT22;35752;52.164;21.244;2023-03-05T00:30:36;-3.30;99.90
49855;DHT22;35752;52.164;21.244;2023-03-05T00:33:02;-3.30;99.90
49855;DHT22;35752;52.164;21.244;2023-03-05T00:35:27;-3.30;99.90
49855;DHT22;35752;52.164;21.244;2023-03-05T00:37:53;-3.30;99.90
49855;DHT22;35752;52.164;21.244;2023-03-05T00:40:19;-3.40;99.90
49855;DHT22;35752;52.164;21.244;2023-03-05T00:42:44;-3.40;99.90
49855;DHT22;35752;52.164;21.244;2023-03-05T00:45:10;-3.30;99.90
49855;DHT22;35752;52.164;21.244;2023-03-05T00:47:35;-3.30;99.90
49855;DHT22;35752;52.164;21.244;2023-03-05T00:50:01;-3.30;99.90
49855;DHT22;35752;52.164;21.244;2023-03-05T00:52:26;-3.30;99.90
49855;DHT22;35752;52.164;21.244;2023-03-05T00:54:52;-3.30;99.90
49855;DHT22;35752;52.164;21.244;2023-03-05T00:57:17;-3.20;99.90
49855;DHT22;35752;52.164;21.244;2023-03-05T00:59:43;-3.20;99.90
49855;DHT22;35752;52.164;21.244;2023-03-05T01:02:09;-3.20;99.90
49855;DHT22;35752;52.164;21.244;2023-03-05T01:04:35;-3.20;99.90
49855;DHT22;35752;52.164;21.244;2023-03-05T01:07:00;-3.20;99.90
49855;DHT22;35752;52.164;21.244;2023-03-05T01:09:26;-3.20;99.90
49855;DHT22;35752;52.164;21.244;2023-03-05T01:11:51;-3.20;99.90
49855;DHT22;35752;52.164;21.244;2023-03-05T01:14:17;-3.40;99.90
49855;DHT22;35752;52.164;21.244;2023-03-05T01:16:42;-3.40;99.90
49855;DHT22;35752;52.164;21.244;2023-03-05T01:19:08;-3.50;99.90
49855;DHT22;35752;52.164;21.244;2023-03-05T01:21:34;-3.50;99.90
49855;DHT22;35752;52.164;21.244;2023-03-05T01:24:00;-3.50;99.90
49855;DHT22;35752;52.164;21.244;2023-03-05T01:26:25;-3.60;99.90
49855;DHT22;35752;52.164;21.244;2023-03-05T01:28:51;-3.60;99.90
49855;DHT22;35752;52.164;21.244;2023-03-05T01:31:17;-3.70;99.90
49855;DHT22;35752;52.164;21.244;2023-03-05T01:33:43;-3.70;99.90
49855;DHT22;35752;52.164;21.244;2023-03-05T01:36:09;-3.80;99.90
49855;DHT22;35752;52.164;21.244;2023-03-05T01:38:37;-3.80;99.90
49855;DHT22;35752;52.164;21.244;2023-03-05T01:41:03;-3.80;99.90
49855;DHT22;35752;52.164;21.244;2023-03-05T01:43:29;-3.80;99.90
49855;DHT22;35752;52.164;21.244;2023-03-05T01:48:41;-3.90;99.90
49855;DHT22;35752;52.164;21.244;2023-03-05T01:51:08;-3.90;99.90
49855;DHT22;35752;52.164;21.244;2023-03-05T01:53:34;-3.90;99.90
49855;DHT22;35752;52.164;21.244;2023-03-05T01:56:00;-3.90;99.90
49855;DHT22;35752;52.164;21.244;2023-03-05T01:58:25;-3.90;99.90
49855;DHT22;35752;52.164;21.244;2023-03-05T02:00:52;-3.90;99.90
49855;DHT22;35752;52.164;21.244;2023-03-05T02:03:18;-4.00;99.90
49855;DHT22;35752;52.164;21.244;2023-03-05T02:05:44;-4.00;99.90
49855;DHT22;35752;52.164;21.244;2023-03-05T02:08:11;-4.00;99.90
49855;DHT22;35752;52.164;21.244;2023-03-05T02:10:38;-4.00;99.90
49855;DHT22;35752;52.164;21.244;2023-03-05T02:13:06;-4.10;99.90
49855;DHT22;35752;52.164;21.244;2023-03-05T02:15:31;-4.10;99.90
49855;DHT22;35752;52.164;21.244;2023-03-05T02:17:57;-4.10;99.90
49855;DHT22;35752;52.164;21.244;2023-03-05T02:20:25;-4.00;99.90
49855;DHT22;35752;52.164;21.244;2023-03-05T02:22:50;-4.00;99.90
49855;DHT22;35752;52.164;21.244;2023-03-05T02:25:18;-4.00;99.90
49855;DHT22;35752;52.164;21.244;2023-03-05T02:27:51;-4.00;99.90
49855;DHT22;35752;52.164;21.244;2023-03-05T02:30:18;-4.00;99.90
49855;DHT22;35752;52.164;21.244;2023-03-05T02:32:44;-4.00;99.90
49855;DHT22;35752;52.164;21.244;2023-03-05T02:35:10;-4.00;99.90
49855;DHT22;35752;52.164;21.244;2023-03-05T02:37:35;-4.00;99.90
49855;DHT22;35752;52.164;21.244;2023-03-05T02:40:01;-4.10;99.90
49855;DHT22;35752;52.164;21.244;2023-03-05T02:42:26;-4.10;99.90
49855;DHT22;35752;52.164;21.244;2023-03-05T02:44:52;-4.10;99.90
49855;DHT22;35752;52.164;21.244;2023-03-05T02:47:17;-4.20;99.90
49855;DHT22;35752;52.164;21.244;2023-03-05T02:49:43;-4.20;99.90
49855;DHT22;35752;52.164;21.244;2023-03-05T02:52:08;-4.20;99.90
49855;DHT22;35752;52.164;21.244;2023-03-05T02:54:34;-4.20;99.90
49855;DHT22;35752;52.164;21.244;2023-03-05T02:56:59;-4.20;99.90
49855;DHT22;35752;52.164;21.244;2023-03-05T02:59:25;-4.20;99.90
49855;DHT22;35752;52.164;21.244;2023-03-05T03:01:50;-4.20;99.90
49855;DHT22;35752;52.164;21.244;2023-03-05T03:04:16;-4.30;99.90
49855;DHT22;35752;52.164;21.244;2023-03-05T03:06:41;-4.30;99.90
49855;DHT22;35752;52.164;21.244;2023-03-05T03:09:07;-4.30;99.90
49855;DHT22;35752;52.164;21.244;2023-03-05T03:11:32;-4.30;99.90
49855;DHT22;35752;52.164;21.244;2023-03-05T03:13:58;-4.20;99.90
49855;DHT22;35752;52.164;21.244;2023-03-05T03:16:23;-4.20;99.90
49855;DHT22;35752;52.164;21.244;2023-03-05T03:18:49;-4.20;99.90
49855;DHT22;35752;52.164;21.244;2023-03-05T03:21:18;-4.30;99.90
49855;DHT22;35752;52.164;21.244;2023-03-05T03:23:44;-4.20;99.90
49855;DHT22;35752;52.164;21.244;2023-03-05T03:26:10;-4.20;99.90
49855;DHT22;35752;52.164;21.244;2023-03-05T03:28:35;-4.10;99.90
49855;DHT22;35752;52.164;21.244;2023-03-05T03:31:01;-4.20;99.90
49855;DHT22;35752;52.164;21.244;2023-03-05T03:33:26;-4.20;99.90
49855;DHT22;35752;52.164;21.244;2023-03-05T03:35:52;-4.20;99.90
49855;DHT22;35752;52.164;21.244;2023-03-05T03:38:17;-4.10;99.90
49855;DHT22;35752;52.164;21.244;2023-03-05T03:40:43;-4.10;99.90
49855;DHT22;35752;52.164;21.244;2023-03-05T03:43:08;-4.10;99.90
49855;DHT22;35752;52.164;21.244;2023-03-05T03:45:34;-4.10;99.90
49855;DHT22;35752;52.164;21.244;2023-03-05T03:47:59;-4.10;99.90
49855;DHT22;35752;52.164;21.244;2023-03-05T03:50:25;-4.20;99.90
49855;DHT22;35752;52.164;21.244;2023-03-05T03:52:51;-4.20;99.90
49855;DHT22;35752;52.164;21.244;2023-03-05T03:55:16;-4.30;99.90
49855;DHT22;35752;52.164;21.244;2023-03-05T03:57:42;-4.30;99.90
49855;DHT22;35752;52.164;21.244;2023-03-05T04:00:08;-4.40;99.90
49855;DHT22;35752;52.164;21.244;2023-03-05T04:02:35;-4.40;99.90
49855;DHT22;35752;52.164;21.244;2023-03-05T04:05:01;-4.50;99.90
49855;DHT22;35752;52.164;21.244;2023-03-05T04:07:27;-4.40;99.90
49855;DHT22;35752;52.164;21.244;2023-03-05T04:09:52;-4.40;99.90
49855;DHT22;35752;52.164;21.244;2023-03-05T04:12:18;-4.30;99.90
49855;DHT22;35752;52.164;21.244;2023-03-05T04:14:45;-4.30;99.90
49855;DHT22;35752;52.164;21.244;2023-03-05T04:17:10;-4.30;99.90
49855;DHT22;35752;52.164;21.244;2023-03-05T04:19:36;-4.30;99.90
49855;DHT22;35752;52.164;21.244;2023-03-05T04:22:01;-4.30;99.90
49855;DHT22;35752;52.164;21.244;2023-03-05T04:24:27;-4.20;99.90
49855;DHT22;35752;52.164;21.244;2023-03-05T04:26:52;-4.10;99.90
49855;DHT22;35752;52.164;21.244;2023-03-05T04:29:18;-4.10;99.90
49855;DHT22;35752;52.164;21.244;2023-03-05T04:31:43;-4.00;99.90
49855;DHT22;35752;52.164;21.244;2023-03-05T04:34:09;-4.00;99.90
49855;DHT22;35752;52.164;21.244;2023-03-05T04:36:34;-4.10;99.90
49855;DHT22;35752;52.164;21.244;2023-03-05T04:39:01;-4.00;99.90
49855;DHT22;35752;52.164;21.244;2023-03-05T04:41:27;-4.10;99.90
49855;DHT22;35752;52.164;21.244;2023-03-05T04:43:52;-4.10;99.90
49855;DHT22;35752;52.164;21.244;2023-03-05T04:46:18;-4.00;99.90
49855;DHT22;35752;52.164;21.244;2023-03-05T04:48:43;-4.00;99.90
49855;DHT22;35752;52.164;21.244;2023-03-05T04:51:09;-4.00;99.90
49855;DHT22;35752;52.164;21.244;2023-03-05T04:53:34;-4.00;99.90
49855;DHT22;35752;52.164;21.244;2023-03-05T04:56:00;-4.00;99.90
49855;DHT22;35752;52.164;21.244;2023-03-05T04:58:26;-4.00;99.90
49855;DHT22;35752;52.164;21.244;2023-03-05T05:00:51;-4.00;99.90
49855;DHT22;35752;52.164;21.244;2023-03-05T05:03:17;-4.00;99.90
49855;DHT22;35752;52.164;21.244;2023-03-05T05:05:43;-4.00;99.90
49855;DHT22;35752;52.164;21.244;2023-03-05T05:08:08;-3.90;99.90
49855;DHT22;35752;52.164;21.244;2023-03-05T05:10:34;-4.00;99.90
49855;DHT22;35752;52.164;21.244;2023-03-05T05:13:02;-3.90;99.90
49855;DHT22;35752;52.164;21.244;2023-03-05T05:15:28;-4.00;99.90
49855;DHT22;35752;52.164;21.244;2023-03-05T05:17:53;-3.90;99.90
49855;DHT22;35752;52.164;21.244;2023-03-05T05:20:19;-3.90;99.90
49855;DHT22;35752;52.164;21.244;2023-03-05T05:22:44;-3.90;99.90
49855;DHT22;35752;52.164;21.244;2023-03-05T05:25:10;-3.90;99.90
49855;DHT22;35752;52.164;21.244;2023-03-05T05:27:37;-3.90;99.90
49855;DHT22;35752;52.164;21.244;2023-03-05T05:30:03;-3.90;99.90
49855;DHT22;35752;52.164;21.244;2023-03-05T05:32:28;-3.90;99.90
49855;DHT22;35752;52.164;21.244;2023-03-05T05:34:55;-3.90;99.90
49855;DHT22;35752;52.164;21.244;2023-03-05T05:37:21;-3.80;99.90
49855;DHT22;35752;52.164;21.244;2023-03-05T05:39:46;-3.90;99.90
49855;DHT22;35752;52.164;21.244;2023-03-05T05:42:17;-3.80;99.90
49855;DHT22;35752;52.164;21.244;2023-03-05T05:44:43;-3.90;99.90
49855;DHT22;35752;52.164;21.244;2023-03-05T05:47:08;-3.80;99.90
49855;DHT22;35752;52.164;21.244;2023-03-05T05:49:34;-3.90;99.90
49855;DHT22;35752;52.164;21.244;2023-03-05T05:51:59;-3.90;99.90
49855;DHT22;35752;52.164;21.244;2023-03-05T05:54:25;-3.80;99.90
49855;DHT22;35752;52.164;21.244;2023-03-05T05:56:50;-3.80;99.90
49855;DHT22;35752;52.164;21.244;2023-03-05T05:59:16;-3.70;99.90
49855;DHT22;35752;52.164;21.244;2023-03-05T06:01:41;-3.60;99.90
49855;DHT22;35752;52.164;21.244;2023-03-05T06:04:07;-3.50;99.90
49855;DHT22;35752;52.164;21.244;2023-03-05T06:06:33;-3.40;99.90
49855;DHT22;35752;52.164;21.244;2023-03-05T06:08:59;-3.30;99.90
49855;DHT22;35752;52.164;21.244;2023-03-05T06:11:25;-3.10;99.90
49855;DHT22;35752;52.164;21.244;2023-03-05T06:13:50;-3.00;99.90
49855;DHT22;35752;52.164;21.244;2023-03-05T06:16:18;-2.90;99.90
49855;DHT22;35752;52.164;21.244;2023-03-05T06:18:44;-2.80;99.90
49855;DHT22;35752;52.164;21.244;2023-03-05T06:21:10;-2.70;99.90
49855;DHT22;35752;52.164;21.244;2023-03-05T06:23:36;-2.50;99.90
49855;DHT22;35752;52.164;21.244;2023-03-05T06:26:03;-2.50;99.90
49855;DHT22;35752;52.164;21.244;2023-03-05T06:28:28;-2.50;99.90
49855;DHT22;35752;52.164;21.244;2023-03-05T06:33:29;-2.20;99.90
49855;DHT22;35752;52.164;21.244;2023-03-05T06:35:54;-2.00;99.90
49855;DHT22;35752;52.164;21.244;2023-03-05T06:38:20;-1.90;99.90
49855;DHT22;35752;52.164;21.244;2023-03-05T06:40:45;-1.70;99.90
49855;DHT22;35752;52.164;21.244;2023-03-05T06:43:11;-1.50;99.90
49855;DHT22;35752;52.164;21.244;2023-03-05T06:45:36;-1.30;99.90
49855;DHT22;35752;52.164;21.244;2023-03-05T06:48:02;-1.20;99.90
49855;DHT22;35752;52.164;21.244;2023-03-05T06:50:27;-0.90;99.90
49855;DHT22;35752;52.164;21.244;2023-03-05T06:52:53;-0.70;99.90
49855;DHT22;35752;52.164;21.244;2023-03-05T06:55:18;-0.60;99.90
49855;DHT22;35752;52.164;21.244;2023-03-05T06:57:44;-0.30;99.90
49855;DHT22;35752;52.164;21.244;2023-03-05T07:00:10;-0.20;99.90
49855;DHT22;35752;52.164;21.244;2023-03-05T07:41:26;0.70;96.10
49855;DHT22;35752;52.164;21.244;2023-03-05T07:43:52;0.70;96.40
49855;DHT22;35752;52.164;21.244;2023-03-05T07:46:19;0.80;96.10
49855;DHT22;35752;52.164;21.244;2023-03-05T07:48:45;0.80;95.70
49855;DHT22;35752;52.164;21.244;2023-03-05T07:51:13;0.80;95.50
49855;DHT22;35752;52.164;21.244;2023-03-05T07:53:40;0.90;96.00
49855;DHT22;35752;52.164;21.244;2023-03-05T07:56:06;0.90;95.40
49855;DHT22;35752;52.164;21.244;2023-03-05T07:58:32;1.10;95.60
49855;DHT22;35752;52.164;21.244;2023-03-05T08:00:57;1.10;95.00
49855;DHT22;35752;52.164;21.244;2023-03-05T08:03:23;1.20;95.40
49855;DHT22;35752;52.164;21.244;2023-03-05T08:05:49;1.20;95.20
49855;DHT22;35752;52.164;21.244;2023-03-05T08:08:14;1.30;95.30
49855;DHT22;35752;52.164;21.244;2023-03-05T08:10:40;1.40;94.70
49855;DHT22;35752;52.164;21.244;2023-03-05T08:13:06;1.50;95.40
49855;DHT22;35752;52.164;21.244;2023-03-05T08:15:32;1.50;94.60
49855;DHT22;35752;52.164;21.244;2023-03-05T08:17:57;1.60;95.20
49855;DHT22;35752;52.164;21.244;2023-03-05T08:20:23;1.60;94.30
49855;DHT22;35752;52.164;21.244;2023-03-05T08:22:49;1.60;94.40
49855;DHT22;35752;52.164;21.244;2023-03-05T08:25:14;1.60;94.40
49855;DHT22;35752;52.164;21.244;2023-03-05T08:27:41;1.70;94.40
49855;DHT22;35752;52.164;21.244;2023-03-05T08:30:07;1.60;94.30
49855;DHT22;35752;52.164;21.244;2023-03-05T08:32:33;1.70;94.70
49855;DHT22;35752;52.164;21.244;2023-03-05T08:34:58;1.60;93.70
49855;DHT22;35752;52.164;21.244;2023-03-05T08:37:24;1.60;94.40
49855;DHT22;35752;52.164;21.244;2023-03-05T08:39:49;1.60;94.40
49855;DHT22;35752;52.164;21.244;2023-03-05T08:42:15;1.60;94.50
49855;DHT22;35752;52.164;21.244;2023-03-05T08:44:40;1.70;94.50
49855;DHT22;35752;52.164;21.244;2023-03-05T08:47:06;1.70;94.50
49855;DHT22;35752;52.164;21.244;2023-03-05T08:49:31;1.60;95.00
49855;DHT22;35752;52.164;21.244;2023-03-05T08:51:57;1.70;94.30
49855;DHT22;35752;52.164;21.244;2023-03-05T08:54:22;1.70;94.50
49855;DHT22;35752;52.164;21.244;2023-03-05T08:56:48;1.70;94.70
49855;DHT22;35752;52.164;21.244;2023-03-05T08:59:14;1.60;94.50
49855;DHT22;35752;52.164;21.244;2023-03-05T09:01:39;1.60;94.60
49855;DHT22;35752;52.164;21.244;2023-03-05T09:04:05;1.60;94.90
49855;DHT22;35752;52.164;21.244;2023-03-05T09:06:31;1.60;94.60
49855;DHT22;35752;52.164;21.244;2023-03-05T09:08:56;1.60;94.60
49855;DHT22;35752;52.164;21.244;2023-03-05T09:11:22;1.60;94.80
49855;DHT22;35752;52.164;21.244;2023-03-05T09:13:47;1.60;94.90
49855;DHT22;35752;52.164;21.244;2023-03-05T09:16:14;1.60;94.40
49855;DHT22;35752;52.164;21.244;2023-03-05T09:18:40;1.60;94.60
49855;DHT22;35752;52.164;21.244;2023-03-05T09:21:06;1.70;94.60
49855;DHT22;35752;52.164;21.244;2023-03-05T09:23:31;1.60;95.10
49855;DHT22;35752;52.164;21.244;2023-03-05T09:25:57;1.70;94.80
49855;DHT22;35752;52.164;21.244;2023-03-05T09:28:23;1.60;94.50
49855;DHT22;35752;52.164;21.244;2023-03-05T09:30:48;1.70;94.70
49855;DHT22;35752;52.164;21.244;2023-03-05T09:33:14;1.70;94.80
49855;DHT22;35752;52.164;21.244;2023-03-05T09:35:39;1.70;94.70
49855;DHT22;35752;52.164;21.244;2023-03-05T09:38:05;1.60;94.50
49855;DHT22;35752;52.164;21.244;2023-03-05T09:40:35;1.50;94.40
49855;DHT22;35752;52.164;21.244;2023-03-05T09:43:04;1.50;94.70
49855;DHT22;35752;52.164;21.244;2023-03-05T09:45:41;1.60;95.00
49855;DHT22;35752;52.164;21.244;2023-03-05T09:48:14;1.60;95.10
49855;DHT22;35752;52.164;21.244;2023-03-05T09:50:46;1.60;95.20
49855;DHT22;35752;52.164;21.244;2023-03-05T09:55:53;1.60;95.40
49855;DHT22;35752;52.164;21.244;2023-03-05T09:58:34;1.50;95.00
49855;DHT22;35752;52.164;21.244;2023-03-05T10:01:09;1.60;95.20
49855;DHT22;35752;52.164;21.244;2023-03-05T10:13:51;1.70;96.00
49855;DHT22;35752;52.164;21.244;2023-03-05T10:29:04;1.80;95.60
49855;DHT22;35752;52.164;21.244;2023-03-05T10:46:45;1.80;96.00
49855;DHT22;35752;52.164;21.244;2023-03-05T10:49:14;1.70;96.10
49855;DHT22;35752;52.164;21.244;2023-03-05T10:54:34;1.80;96.00
49855;DHT22;35752;52.164;21.244;2023-03-05T11:02:15;1.70;96.60
49855;DHT22;35752;52.164;21.244;2023-03-05T11:04:41;1.70;97.00
49855;DHT22;35752;52.164;21.244;2023-03-05T11:07:27;1.60;97.40
49855;DHT22;35752;52.164;21.244;2023-03-05T11:12:27;1.60;98.10
49855;DHT22;35752;52.164;21.244;2023-03-05T11:17:34;1.60;99.00
49855;DHT22;35752;52.164;21.244;2023-03-05T11:25:27;1.60;99.70
49855;DHT22;35752;52.164;21.244;2023-03-05T11:27:56;1.50;99.80
49855;DHT22;35752;52.164;21.244;2023-03-05T11:30:27;1.40;99.90
49855;DHT22;35752;52.164;21.244;2023-03-05T11:36:19;1.30;99.90
49855;DHT22;35752;52.164;21.244;2023-03-05T11:38:50;1.30;99.90
49855;DHT22;35752;52.164;21.244;2023-03-05T11:41:17;1.30;99.90
49855;DHT22;35752;52.164;21.244;2023-03-05T11:43:44;1.30;99.90
49855;DHT22;35752;52.164;21.244;2023-03-05T11:46:10;1.30;99.90
49855;DHT22;35752;52.164;21.244;2023-03-05T11:48:37;1.20;99.90
49855;DHT22;35752;52.164;21.244;2023-03-05T11:52:05;1.10;99.90
49855;DHT22;35752;52.164;21.244;2023-03-05T11:53:59;1.00;99.90
49855;DHT22;35752;52.164;21.244;2023-03-05T11:56:30;1.00;99.90
49855;DHT22;35752;52.164;21.244;2023-03-05T12:01:27;0.80;1.00
49855;DHT22;35752;52.164;21.244;2023-03-05T12:03:53;0.90;1.00
49855;DHT22;35752;52.164;21.244;2023-03-05T12:06:26;0.80;1.00
49855;DHT22;35752;52.164;21.244;2023-03-05T12:08:54;0.80;1.00
49855;DHT22;35752;52.164;21.244;2023-03-05T12:11:22;0.90;1.00
49855;DHT22;35752;52.164;21.244;2023-03-05T12:13:51;0.90;1.00
49855;DHT22;35752;52.164;21.244;2023-03-05T12:23:45;1.00;1.00
49855;DHT22;35752;52.164;21.244;2023-03-05T12:26:11;1.10;1.00
49855;DHT22;35752;52.164;21.244;2023-03-05T12:39:00;0.80;1.00
49855;DHT22;35752;52.164;21.244;2023-03-05T12:46:37;0.80;1.00
49855;DHT22;35752;52.164;21.244;2023-03-05T12:51:48;0.80;1.00
49855;DHT22;35752;52.164;21.244;2023-03-05T12:57:02;0.80;1.00
49855;DHT22;35752;52.164;21.244;2023-03-05T12:59:50;0.80;1.00
49855;DHT22;35752;52.164;21.244;2023-03-05T13:04:45;0.90;1.00
49855;DHT22;35752;52.164;21.244;2023-03-05T13:07:15;0.90;1.00
49855;DHT22;35752;52.164;21.244;2023-03-05T13:09:41;0.90;1.00
49855;DHT22;35752;52.164;21.244;2023-03-05T13:12:15;1.00;1.00
49855;DHT22;35752;52.164;21.244;2023-03-05T13:14:45;0.90;1.00
49855;DHT22;35752;52.164;21.244;2023-03-05T13:19:56;0.90;1.00
49855;DHT22;35752;52.164;21.244;2023-03-05T13:22:21;0.90;1.00
49855;DHT22;35752;52.164;21.244;2023-03-05T13:25:10;0.90;1.00
49855;DHT22;35752;52.164;21.244;2023-03-05T13:27:36;1.00;1.00
49855;DHT22;35752;52.164;21.244;2023-03-05T13:30:02;1.00;1.00
49855;DHT22;35752;52.164;21.244;2023-03-05T13:32:29;1.00;1.00
49855;DHT22;35752;52.164;21.244;2023-03-05T13:34:56;1.00;1.00
49855;DHT22;35752;52.164;21.244;2023-03-05T13:37:26;0.90;1.00
49855;DHT22;35752;52.164;21.244;2023-03-05T13:40:00;0.90;1.00
49855;DHT22;35752;52.164;21.244;2023-03-05T13:42:27;0.90;1.00
49855;DHT22;35752;52.164;21.244;2023-03-05T13:44:57;0.80;1.00
49855;DHT22;35752;52.164;21.244;2023-03-05T13:47:24;1.00;1.00
49855;DHT22;35752;52.164;21.244;2023-03-05T13:49:56;0.90;1.00
49855;DHT22;35752;52.164;21.244;2023-03-05T13:52:34;0.90;1.00
49855;DHT22;35752;52.164;21.244;2023-03-05T13:55:00;0.90;1.00
49855;DHT22;35752;52.164;21.244;2023-03-05T13:57:39;0.90;1.00
49855;DHT22;35752;52.164;21.244;2023-03-05T14:00:06;1.00;1.00
49855;DHT22;35752;52.164;21.244;2023-03-05T14:02:48;1.00;1.00
49855;DHT22;35752;52.164;21.244;2023-03-05T14:05:14;1.00;1.00
49855;DHT22;35752;52.164;21.244;2023-03-05T14:07:40;1.00;1.00
49855;DHT22;35752;52.164;21.244;2023-03-05T14:12:50;0.90;1.00
49855;DHT22;35752;52.164;21.244;2023-03-05T14:15:25;0.90;1.00
49855;DHT22;35752;52.164;21.244;2023-03-05T14:17:52;0.90;1.00
49855;DHT22;35752;52.164;21.244;2023-03-05T14:22:48;0.80;1.00
49855;DHT22;35752;52.164;21.244;2023-03-05T14:27:51;0.80;1.00
49855;DHT22;35752;52.164;21.244;2023-03-05T14:30:18;0.80;1.00
49855;DHT22;35752;52.164;21.244;2023-03-05T14:32:44;0.80;1.00
49855;DHT22;35752;52.164;21.244;2023-03-05T14:35:20;0.90;1.00
49855;DHT22;35752;52.164;21.244;2023-03-05T14:37:48;0.90;1.00
49855;DHT22;35752;52.164;21.244;2023-03-05T14:40:19;0.90;1.00
49855;DHT22;35752;52.164;21.244;2023-03-05T14:45:24;0.90;1.00
49855;DHT22;35752;52.164;21.244;2023-03-05T14:47:50;0.80;1.00
49855;DHT22;35752;52.164;21.244;2023-03-05T14:50:17;0.80;1.00
49855;DHT22;35752;52.164;21.244;2023-03-05T14:58:17;0.60;1.00
49855;DHT22;35752;52.164;21.244;2023-03-05T15:00:44;0.70;1.00
49855;DHT22;35752;52.164;21.244;2023-03-05T15:03:13;0.70;1.00
49855;DHT22;35752;52.164;21.244;2023-03-05T15:05:39;0.60;1.00
49855;DHT22;35752;52.164;21.244;2023-03-05T15:08:05;0.60;1.00
49855;DHT22;35752;52.164;21.244;2023-03-05T15:10:32;0.70;1.00
49855;DHT22;35752;52.164;21.244;2023-03-05T15:12:58;0.50;1.00
49855;DHT22;35752;52.164;21.244;2023-03-05T15:15:23;0.60;1.00
49855;DHT22;35752;52.164;21.244;2023-03-05T15:17:49;0.50;1.00
49855;DHT22;35752;52.164;21.244;2023-03-05T15:20:24;0.50;1.00
49855;DHT22;35752;52.164;21.244;2023-03-05T15:22:50;0.60;1.00
49855;DHT22;35752;52.164;21.244;2023-03-05T15:25:18;0.50;1.00
49855;DHT22;35752;52.164;21.244;2023-03-05T15:27:44;0.50;1.00
49855;DHT22;35752;52.164;21.244;2023-03-05T15:30:14;0.40;1.00
49855;DHT22;35752;52.164;21.244;2023-03-05T15:32:42;0.40;1.00
49855;DHT22;35752;52.164;21.244;2023-03-05T15:35:07;0.40;1.00
49855;DHT22;35752;52.164;21.244;2023-03-05T15:37:33;0.40;1.00
49855;DHT22;35752;52.164;21.244;2023-03-05T15:39:58;0.50;1.00
49855;DHT22;35752;52.164;21.244;2023-03-05T15:42:24;0.50;1.00
49855;DHT22;35752;52.164;21.244;2023-03-05T15:44:49;0.50;1.00
49855;DHT22;35752;52.164;21.244;2023-03-05T15:47:15;0.40;1.00
49855;DHT22;35752;52.164;21.244;2023-03-05T15:49:40;0.40;1.00
49855;DHT22;35752;52.164;21.244;2023-03-05T15:52:06;0.40;1.00
49855;DHT22;35752;52.164;21.244;2023-03-05T15:54:31;0.30;1.00
49855;DHT22;35752;52.164;21.244;2023-03-05T15:56:59;0.30;1.00
49855;DHT22;35752;52.164;21.244;2023-03-05T15:59:24;0.20;1.00
49855;DHT22;35752;52.164;21.244;2023-03-05T16:01:50;0.20;1.00
49855;DHT22;35752;52.164;21.244;2023-03-05T16:04:16;0.20;1.00
49855;DHT22;35752;52.164;21.244;2023-03-05T16:06:42;0.20;1.00
49855;DHT22;35752;52.164;21.244;2023-03-05T16:09:09;0.20;1.00
49855;DHT22;35752;52.164;21.244;2023-03-05T16:11:35;0.10;1.00
49855;DHT22;35752;52.164;21.244;2023-03-05T16:14:02;0.10;1.00
49855;DHT22;35752;52.164;21.244;2023-03-05T16:16:28;0.10;1.00
49855;DHT22;35752;52.164;21.244;2023-03-05T16:18:53;0.10;1.00
49855;DHT22;35752;52.164;21.244;2023-03-05T16:21:20;0.00;1.00
49855;DHT22;35752;52.164;21.244;2023-03-05T16:23:45;0.00;1.00
49855;DHT22;35752;52.164;21.244;2023-03-05T16:26:11;0.00;1.00
49855;DHT22;35752;52.164;21.244;2023-03-05T16:28:37;0.00;1.00
49855;DHT22;35752;52.164;21.244;2023-03-05T16:31:02;-0.10;1.00
49855;DHT22;35752;52.164;21.244;2023-03-05T16:33:28;-0.10;1.00
49855;DHT22;35752;52.164;21.244;2023-03-05T16:36:11;-0.10;1.00
49855;DHT22;35752;52.164;21.244;2023-03-05T16:38:39;-0.20;1.00
49855;DHT22;35752;52.164;21.244;2023-03-05T16:41:04;-0.10;1.00
49855;DHT22;35752;52.164;21.244;2023-03-05T16:43:30;-0.10;1.00
49855;DHT22;35752;52.164;21.244;2023-03-05T16:45:55;-0.10;1.00
49855;DHT22;35752;52.164;21.244;2023-03-05T16:48:21;-0.10;1.00
49855;DHT22;35752;52.164;21.244;2023-03-05T16:50:46;-0.10;1.00
49855;DHT22;35752;52.164;21.244;2023-03-05T16:53:12;-0.20;1.00
49855;DHT22;35752;52.164;21.244;2023-03-05T16:55:37;-0.20;1.00
49855;DHT22;35752;52.164;21.244;2023-03-05T16:58:03;-0.20;1.00
49855;DHT22;35752;52.164;21.244;2023-03-05T17:00:29;-0.20;1.40
49855;DHT22;35752;52.164;21.244;2023-03-05T17:02:54;-0.20;1.70
49855;DHT22;35752;52.164;21.244;2023-03-05T17:05:20;-0.20;1.00
49855;DHT22;35752;52.164;21.244;2023-03-05T17:07:45;-0.20;1.00
49855;DHT22;35752;52.164;21.244;2023-03-05T17:10:11;-0.20;2.60
49855;DHT22;35752;52.164;21.244;2023-03-05T17:12:37;-0.20;7.90
49855;DHT22;35752;52.164;21.244;2023-03-05T17:15:03;-0.20;8.20
49855;DHT22;35752;52.164;21.244;2023-03-05T17:17:28;-0.20;1.70
49855;DHT22;35752;52.164;21.244;2023-03-05T17:19:55;-0.20;1.00
49855;DHT22;35752;52.164;21.244;2023-03-05T17:22:20;-0.20;14.30
49855;DHT22;35752;52.164;21.244;2023-03-05T17:24:46;-0.30;9.80
49855;DHT22;35752;52.164;21.244;2023-03-05T17:27:12;-0.30;11.60
49855;DHT22;35752;52.164;21.244;2023-03-05T17:29:38;-0.40;11.00
49855;DHT22;35752;52.164;21.244;2023-03-05T17:32:04;-0.40;24.10
49855;DHT22;35752;52.164;21.244;2023-03-05T17:34:29;-0.40;26.50
49855;DHT22;35752;52.164;21.244;2023-03-05T17:36:55;-0.50;33.90
49855;DHT22;35752;52.164;21.244;2023-03-05T17:39:20;-0.50;35.90
49855;DHT22;35752;52.164;21.244;2023-03-05T17:41:46;-0.70;35.00
49855;DHT22;35752;52.164;21.244;2023-03-05T17:44:12;-0.70;41.40
49855;DHT22;35752;52.164;21.244;2023-03-05T17:46:38;-0.80;50.40
49855;DHT22;35752;52.164;21.244;2023-03-05T17:49:03;-0.80;63.60
49855;DHT22;35752;52.164;21.244;2023-03-05T17:51:28;-0.80;68.70
49855;DHT22;35752;52.164;21.244;2023-03-05T17:53:54;-0.90;68.50
49855;DHT22;35752;52.164;21.244;2023-03-05T17:56:19;-1.00;69.30
49855;DHT22;35752;52.164;21.244;2023-03-05T17:58:46;-1.10;65.40
49855;DHT22;35752;52.164;21.244;2023-03-05T18:01:19;-1.20;68.30
49855;DHT22;35752;52.164;21.244;2023-03-05T18:03:45;-1.20;74.80